Time;durP1;ratioP1;P1;durP2;ratioP2;P2;SDS_P1;SDS_P2;PMS_P1;PMS_P2;Temp;Humidity;BMP_temperature;BMP_pressure;BME280_temperature;BME280_humidity;BME280_pressure;Samples;Min_cycle;Max_cycle;Signal;HPM_P1;HPM_P2
2022/01/01 00:01:18;;;;;;;50.95;33.53;;;;;;;11.65;94.08;102217.94;4993025;28;20034;-57
2022/01/01 00:03:43;;;;;;;53.88;37.80;;;;;;;11.63;94.15;102216.56;4994255;28;20108;-55
2022/01/01 00:06:08;;;;;;;70.22;47.17;;;;;;;11.62;94.33;102226.78;4994329;28;20030;-56
2022/01/01 00:08:34;;;;;;;75.28;52.35;;;;;;;11.62;94.38;102228.75;4994114;28;20028;-56
2022/01/01 00:10:59;;;;;;;71.50;52.05;;;;;;;11.64;94.65;102232.88;4994272;28;20038;-56
2022/01/01 00:13:24;;;;;;;72.07;52.70;;;;;;;11.66;94.68;102238.19;4994041;28;20031;-56
2022/01/01 00:15:50;;;;;;;65.47;46.85;;;;;;;11.67;94.56;102242.59;4994243;28;20084;-58
2022/01/01 00:18:16;;;;;;;64.45;45.95;;;;;;;11.65;94.87;102231.78;4993809;28;20113;-58
2022/01/01 00:20:42;;;;;;;52.30;37.50;;;;;;;11.68;94.73;102238.72;4994300;28;20027;-58
2022/01/01 00:23:07;;;;;;;53.13;33.63;;;;;;;11.67;94.58;102228.72;4993978;28;20022;-57
2022/01/01 00:25:32;;;;;;;46.10;30.00;;;;;;;11.67;94.79;102235.13;4994197;28;20109;-58
2022/01/01 00:27:58;;;;;;;44.55;29.20;;;;;;;11.71;94.91;102238.97;4994044;28;20038;-56
2022/01/01 00:30:23;;;;;;;38.72;23.60;;;;;;;11.74;94.63;102242.31;4993754;28;20489;-58
2022/01/01 00:32:48;;;;;;;38.88;21.85;;;;;;;11.76;94.59;102245.63;4993836;28;20366;-56
2022/01/01 00:35:14;;;;;;;38.85;20.60;;;;;;;11.77;94.50;102245.34;4993837;28;20113;-56
2022/01/01 00:37:39;;;;;;;38.58;19.00;;;;;;;11.80;94.58;102246.75;4993808;28;20023;-55
2022/01/01 00:40:05;;;;;;;35.67;18.67;;;;;;;11.82;94.42;102247.28;4993484;28;20029;-56
2022/01/01 00:42:30;;;;;;;36.53;17.90;;;;;;;11.82;94.33;102244.50;4993418;28;20065;-57
2022/01/01 00:44:55;;;;;;;32.70;16.67;;;;;;;11.82;94.35;102238.97;4993474;28;20022;-60
2022/01/01 00:47:21;;;;;;;34.72;17.98;;;;;;;11.86;93.55;102224.25;4993578;28;20382;-57
2022/01/01 00:49:46;;;;;;;30.67;15.88;;;;;;;11.85;93.76;102230.91;4993595;28;20130;-56
2022/01/01 00:52:11;;;;;;;34.78;16.90;;;;;;;11.84;93.65;102231.19;4993636;28;20053;-56
2022/01/01 00:54:37;;;;;;;32.42;16.70;;;;;;;11.83;94.01;102224.84;4993852;28;20026;-57
2022/01/01 00:57:03;;;;;;;35.15;18.70;;;;;;;11.83;93.94;102221.22;4993750;28;20113;-58
2022/01/01 00:59:30;;;;;;;33.17;17.58;;;;;;;11.83;93.89;102227.59;4993451;28;20112;-56
2022/01/01 01:01:56;;;;;;;32.55;16.83;;;;;;;11.82;93.89;102231.50;4993629;28;20041;-55
2022/01/01 01:04:21;;;;;;;31.52;17.88;;;;;;;11.82;93.52;102236.19;4993385;28;20022;-56
2022/01/01 01:06:46;;;;;;;33.40;16.95;;;;;;;11.86;93.26;102243.66;4993209;28;20045;-56
2022/01/01 01:09:12;;;;;;;35.03;16.65;;;;;;;11.86;93.41;102238.13;4993536;28;20433;-58
2022/01/01 01:11:43;;;;;;;35.78;17.70;;;;;;;11.86;93.36;102245.63;4992401;28;20030;-57
2022/01/01 01:14:10;;;;;;;33.10;17.90;;;;;;;11.88;93.20;102237.00;4993724;28;20041;-59
2022/01/01 01:16:36;;;;;;;37.78;18.65;;;;;;;11.83;93.40;102235.91;4993489;28;20022;-56
2022/01/01 01:19:02;;;;;;;34.35;17.90;;;;;;;11.83;93.42;102240.63;4993526;28;20129;-56
2022/01/01 01:21:28;;;;;;;34.72;18.02;;;;;;;11.84;93.13;102242.28;4993478;28;20035;-56
2022/01/01 01:23:54;;;;;;;36.90;17.10;;;;;;;11.83;92.99;102235.91;4993980;28;20401;-56
2022/01/01 01:26:20;;;;;;;31.50;15.75;;;;;;;11.82;93.33;102241.72;4993588;28;20105;-58
2022/01/01 01:28:49;;;;;;;31.38;16.42;;;;;;;11.83;93.09;102244.25;4993276;28;20138;-56
2022/01/01 01:31:15;;;;;;;30.55;15.55;;;;;;;11.81;93.03;102248.38;4993168;28;20557;-57
2022/01/01 01:33:41;;;;;;;31.58;15.85;;;;;;;11.80;93.46;102252.28;4993273;28;20058;-57
2022/01/01 01:36:06;;;;;;;32.00;15.18;;;;;;;11.79;93.22;102251.44;4993444;28;20041;-56
2022/01/01 01:38:36;;;;;;;32.65;15.63;;;;;;;11.81;93.10;102257.53;4993681;28;20057;-56
2022/01/01 01:41:02;;;;;;;28.10;14.98;;;;;;;11.80;93.42;102263.38;4993283;28;20371;-57
2022/01/01 01:43:27;;;;;;;29.65;15.60;;;;;;;11.81;93.30;102265.88;4993459;28;20050;-56
2022/01/01 01:45:53;;;;;;;31.50;15.40;;;;;;;11.79;93.09;102258.94;4993247;28;20513;-59
2022/01/01 01:48:18;;;;;;;31.08;15.90;;;;;;;11.80;93.40;102266.16;4993108;28;20030;-57
2022/01/01 01:50:43;;;;;;;37.20;17.13;;;;;;;11.79;93.38;102258.94;4993310;28;20066;-57
2022/01/01 01:53:09;;;;;;;30.70;16.02;;;;;;;11.79;93.49;102262.53;4992856;28;20081;-56
2022/01/01 01:55:35;;;;;;;33.55;15.60;;;;;;;11.79;93.63;102278.34;4994560;28;20019;-58
2022/01/01 01:58:00;;;;;;;36.28;16.40;;;;;;;11.77;93.69;102275.03;4996970;28;20023;-57
2022/01/01 02:02:53;;;;;;;29.20;15.68;;;;;;;11.77;93.89;102275.03;4997044;28;20034;-57
2022/01/01 02:05:19;;;;;;;30.10;17.15;;;;;;;11.76;94.04;102281.69;4996583;28;20486;-57
2022/01/01 02:07:44;;;;;;;33.90;16.33;;;;;;;11.74;93.96;102275.56;4996322;28;20145;-57
2022/01/01 02:10:10;;;;;;;32.53;16.08;;;;;;;11.73;94.42;102285.00;4996509;28;20097;-58
2022/01/01 02:12:38;;;;;;;32.42;16.00;;;;;;;11.73;94.41;102277.53;4996420;28;20117;-58
2022/01/01 02:17:29;;;;;;;30.52;15.52;;;;;;;11.68;94.70;102270.03;4996777;28;20034;-58
2022/01/01 02:20:03;;;;;;;30.25;15.00;;;;;;;11.61;94.85;102265.88;4996401;28;20031;-57
2022/01/01 02:22:47;;;;;;;;;;;;;;;11.73;94.53;102276.69;4997083;28;20125;-56
2022/01/01 02:25:13;;;;;;;32.03;14.97;;;;;;;11.67;94.92;102279.47;4996653;28;19910;-58
2022/01/01 02:27:39;;;;;;;34.05;14.05;;;;;;;11.65;95.16;102270.59;4996238;28;20034;-57
2022/01/01 02:30:10;;;;;;;34.05;14.35;;;;;;;11.64;95.49;102265.34;4996356;28;20032;-57
2022/01/01 02:32:36;;;;;;;29.73;13.93;;;;;;;11.63;96.06;102263.66;4996338;28;20088;-57
2022/01/01 02:35:03;;;;;;;34.85;14.82;;;;;;;11.65;95.58;102267.00;4996306;28;20029;-58
2022/01/01 02:37:31;;;;;;;31.42;13.90;;;;;;;11.63;95.85;102261.72;4996248;28;20030;-57
2022/01/01 02:39:56;;;;;;;30.13;14.23;;;;;;;11.64;95.75;102268.09;4995971;28;20026;-57
2022/01/01 02:42:22;;;;;;;31.17;14.38;;;;;;;11.66;95.84;102263.94;4996057;28;20029;-57
2022/01/01 02:44:50;;;;;;;29.52;14.00;;;;;;;11.63;95.87;102264.50;4996241;28;20033;-58
2022/01/01 02:47:16;;;;;;;30.63;15.32;;;;;;;11.60;96.34;102259.53;4996203;28;20026;-58
2022/01/01 02:49:41;;;;;;;30.33;13.73;;;;;;;11.60;96.56;102255.91;4995829;28;20084;-58
2022/01/01 02:52:07;;;;;;;28.65;14.15;;;;;;;11.60;96.35;102267.00;4996164;28;20081;-58
2022/01/01 02:54:32;;;;;;;28.10;14.30;;;;;;;11.63;96.12;102258.94;4995935;28;20026;-57
2022/01/01 02:56:57;;;;;;;29.75;13.60;;;;;;;11.61;96.33;102254.78;4995771;28;20541;-57
2022/01/01 02:59:22;;;;;;;31.70;14.45;;;;;;;11.61;96.20;102244.56;4994441;28;20038;-57
2022/01/01 03:01:48;;;;;;;33.42;15.20;;;;;;;11.59;96.22;102229.28;4995754;28;20524;-58
2022/01/01 03:04:13;;;;;;;31.40;14.25;;;;;;;11.59;96.18;102240.38;4995843;28;20030;-58
2022/01/01 03:06:39;;;;;;;28.40;14.63;;;;;;;11.60;96.44;102237.34;4995525;28;20022;-56
2022/01/01 03:09:04;;;;;;;32.70;14.45;;;;;;;11.58;96.27;102225.72;4996039;28;20023;-56
2022/01/01 03:11:30;;;;;;;28.98;14.40;;;;;;;11.58;96.21;102233.16;4995513;28;20033;-56
2022/01/01 03:13:55;;;;;;;27.73;14.40;;;;;;;11.57;96.47;102228.75;4995721;28;20022;-56
2022/01/01 03:16:20;;;;;;;29.30;14.50;;;;;;;11.57;96.24;102234.31;4994166;28;20482;-56
2022/01/01 03:18:46;;;;;;;29.52;14.93;;;;;;;11.57;96.34;102237.91;4995029;28;20101;-56
2022/01/01 03:21:11;;;;;;;28.98;15.30;;;;;;;11.58;96.36;102238.72;4995242;28;20026;-57
2022/01/01 03:23:36;;;;;;;30.27;15.40;;;;;;;11.57;96.26;102239.84;4995224;28;20394;-57
2022/01/01 03:26:02;;;;;;;31.27;15.15;;;;;;;11.58;96.09;102242.34;4995087;28;20045;-56
2022/01/01 03:28:28;;;;;;;31.25;15.07;;;;;;;11.60;96.11;102236.50;4994907;28;20023;-55
2022/01/01 03:30:53;;;;;;;30.65;16.02;;;;;;;11.61;96.09;102230.69;4994193;28;20026;-55
2022/01/01 03:33:19;;;;;;;30.65;14.48;;;;;;;11.63;96.01;102241.50;4995550;28;20053;-55
2022/01/01 03:35:44;;;;;;;32.22;14.98;;;;;;;11.60;96.03;102236.50;4995061;28;20457;-56
2022/01/01 03:38:10;;;;;;;29.48;15.60;;;;;;;11.61;95.78;102232.63;4994785;28;20026;-54
2022/01/01 03:40:35;;;;;;;30.00;16.27;;;;;;;11.61;95.86;102227.94;4994922;28;20110;-58
2022/01/01 03:43:00;;;;;;;30.50;15.32;;;;;;;11.63;95.82;102222.09;4994854;28;20033;-56
2022/01/01 03:45:26;;;;;;;32.10;15.65;;;;;;;11.59;96.05;102224.59;4994800;28;20355;-58
2022/01/01 03:47:51;;;;;;;30.58;15.20;;;;;;;11.55;95.71;102227.09;4994981;28;20036;-56
2022/01/01 03:50:17;;;;;;;28.75;15.32;;;;;;;11.51;96.01;102217.66;4994701;28;20497;-56
2022/01/01 03:52:44;;;;;;;29.92;15.90;;;;;;;11.55;95.79;102220.72;4993203;28;20050;-58
2022/01/01 03:55:10;;;;;;;28.35;15.70;;;;;;;11.56;95.77;102222.38;4994689;28;20030;-57
2022/01/01 03:57:36;;;;;;;31.80;16.02;;;;;;;11.56;95.75;102227.91;4994504;28;20386;-57
2022/01/01 04:00:03;;;;;;;30.13;15.40;;;;;;;11.55;95.64;102229.88;4994344;28;20033;-58
2022/01/01 04:02:28;;;;;;;29.23;15.27;;;;;;;11.55;95.76;102216.00;4993253;28;20437;-58
2022/01/01 04:04:53;;;;;;;31.83;15.18;;;;;;;11.57;95.85;102221.28;4994685;28;20114;-57
2022/01/01 04:07:18;;;;;;;28.67;14.68;;;;;;;11.56;95.49;102222.38;4994465;28;20030;-57
2022/01/01 04:09:44;;;;;;;28.63;14.55;;;;;;;11.55;95.90;102226.25;4994028;28;20037;-57
2022/01/01 04:12:09;;;;;;;28.10;14.10;;;;;;;11.57;95.46;102221.28;4994281;28;20034;-57
2022/01/01 04:14:34;;;;;;;25.48;13.90;;;;;;;11.58;95.43;102228.47;4994333;28;20034;-57
2022/01/01 04:17:00;;;;;;;27.40;13.57;;;;;;;11.62;95.08;102224.03;4994200;28;20101;-56
2022/01/01 04:19:35;;;;;;;26.90;13.75;;;;;;;11.59;95.04;102219.06;4993552;28;20438;-56
2022/01/01 04:22:01;;;;;;;29.58;13.40;;;;;;;11.58;95.01;102217.38;4994395;28;20026;-56
2022/01/01 04:24:26;;;;;;;26.65;13.27;;;;;;;11.58;95.04;102220.16;4994081;28;20100;-57
2022/01/01 04:26:51;;;;;;;26.45;13.05;;;;;;;11.59;94.92;102218.22;4994705;28;20022;-57
2022/01/01 04:29:17;;;;;;;27.90;13.13;;;;;;;11.57;94.94;102212.94;4994135;28;20027;-57
2022/01/01 04:31:42;;;;;;;26.05;13.05;;;;;;;11.56;94.98;102216.84;4994197;28;20037;-57
2022/01/01 04:34:08;;;;;;;27.17;14.23;;;;;;;11.58;94.65;102222.94;4994164;28;20019;-57
2022/01/01 04:36:33;;;;;;;25.48;12.32;;;;;;;11.55;94.58;102216.00;4993770;28;20022;-55
2022/01/01 04:38:58;;;;;;;25.80;12.40;;;;;;;11.54;94.62;102216.28;4994386;28;20037;-58
2022/01/01 04:41:24;;;;;;;27.77;14.70;;;;;;;11.55;94.70;102232.66;4993742;28;20029;-56
2022/01/01 04:43:49;;;;;;;27.48;13.95;;;;;;;11.57;94.67;102229.59;4993839;28;20036;-57
2022/01/01 04:46:15;;;;;;;26.83;12.60;;;;;;;11.57;94.42;102226.00;4993754;28;20022;-56
2022/01/01 04:48:40;;;;;;;26.25;12.63;;;;;;;11.56;94.10;102227.91;4993880;28;20026;-57
2022/01/01 04:51:07;;;;;;;28.88;14.73;;;;;;;11.52;94.27;102222.09;4993849;28;20105;-56
2022/01/01 04:53:39;;;;;;;26.25;13.15;;;;;;;11.58;94.15;102227.63;4993691;28;20046;-56
2022/01/01 04:56:07;;;;;;;23.48;12.20;;;;;;;11.65;93.66;102230.97;4992650;28;20437;-56
2022/01/01 04:58:32;;;;;;;28.65;13.00;;;;;;;11.60;93.73;102237.34;4993823;28;20022;-56
2022/01/01 05:00:57;;;;;;;27.58;12.25;;;;;;;11.61;93.42;102236.25;4993524;28;20061;-57
2022/01/01 05:03:22;;;;;;;24.73;11.75;;;;;;;11.64;93.49;102230.13;4993834;28;20118;-56
2022/01/01 05:05:48;;;;;;;24.02;12.38;;;;;;;11.63;92.91;102230.41;4993651;28;20023;-56
2022/01/01 05:08:13;;;;;;;25.48;12.35;;;;;;;11.66;93.16;102240.94;4993708;28;20027;-56
2022/01/01 05:10:38;;;;;;;24.02;12.35;;;;;;;11.68;92.73;102239.56;4994084;28;20041;-57
2022/01/01 05:13:04;;;;;;;24.42;11.20;;;;;;;11.68;92.62;102235.94;4993727;28;20052;-56
2022/01/01 05:15:29;;;;;;;31.85;14.93;;;;;;;11.67;92.77;102243.44;4993610;28;20478;-56
2022/01/01 05:17:54;;;;;;;25.35;11.52;;;;;;;11.66;92.25;102252.84;4993671;28;20054;-56
2022/01/01 05:20:20;;;;;;;24.52;10.82;;;;;;;11.68;92.35;102253.41;4993681;28;20474;-55
2022/01/01 05:22:46;;;;;;;25.95;12.25;;;;;;;11.70;92.26;102248.44;4993651;28;20037;-56
2022/01/01 05:25:11;;;;;;;30.05;13.30;;;;;;;11.68;92.36;102255.34;4993667;28;20054;-57
2022/01/01 05:27:36;;;;;;;23.83;11.80;;;;;;;11.68;92.11;102247.88;4993354;28;20030;-56
2022/01/01 05:30:06;;;;;;;28.10;11.57;;;;;;;11.68;91.82;102238.72;4995705;28;20034;-58
2022/01/01 05:32:31;;;;;;;25.80;11.30;;;;;;;11.74;91.59;102247.84;4997358;28;20022;-57
2022/01/01 05:34:57;;;;;;;28.98;16.00;;;;;;;11.74;91.89;102245.06;4997559;28;20034;-58
2022/01/01 05:37:22;;;;;;;25.95;11.98;;;;;;;11.75;91.28;102242.03;4997399;28;20026;-57
2022/01/01 05:39:47;;;;;;;31.45;16.48;;;;;;;11.77;91.70;102241.75;4997014;28;20022;-59
2022/01/01 05:42:12;;;;;;;26.10;11.40;;;;;;;11.76;91.42;102240.09;4997008;28;20033;-56
2022/01/01 05:44:38;;;;;;;24.50;10.77;;;;;;;11.73;91.14;102238.72;4997258;28;20022;-57
2022/01/01 05:47:04;;;;;;;25.42;13.18;;;;;;;11.72;91.42;102248.13;4997072;28;20033;-56
2022/01/01 05:49:29;;;;;;;25.25;11.30;;;;;;;11.73;91.24;102248.94;4997322;28;20061;-57
2022/01/01 05:51:54;;;;;;;27.45;13.90;;;;;;;11.71;91.40;102250.06;4996883;28;20141;-57
2022/01/01 05:54:20;;;;;;;24.13;10.98;;;;;;;11.72;90.92;102242.59;4997054;28;20382;-57
2022/01/01 05:56:45;;;;;;;26.80;13.02;;;;;;;11.69;91.09;102235.66;4997014;28;20026;-57
2022/01/01 05:59:10;;;;;;;25.52;10.93;;;;;;;11.66;91.15;102238.19;4996912;28;20496;-57
2022/01/01 06:01:36;;;;;;;24.08;10.73;;;;;;;11.65;91.01;102237.34;4996797;28;20028;-58
2022/01/01 06:04:01;;;;;;;26.02;11.32;;;;;;;11.59;91.08;102235.69;4996795;28;20019;-57
2022/01/01 06:06:26;;;;;;;24.15;10.82;;;;;;;11.58;91.57;102238.72;4997017;28;20026;-59
2022/01/01 06:08:52;;;;;;;26.25;10.70;;;;;;;11.58;91.46;102239.56;4996612;28;20022;-58
2022/01/01 06:11:17;;;;;;;24.70;10.77;;;;;;;11.56;91.22;102239.00;4996642;28;20058;-57
2022/01/01 06:13:42;;;;;;;23.77;10.55;;;;;;;11.53;91.21;102234.00;4996557;28;20030;-57
2022/01/01 06:16:07;;;;;;;24.67;12.00;;;;;;;11.49;91.53;102235.69;4996541;28;20030;-58
2022/01/01 06:18:33;;;;;;;22.60;10.55;;;;;;;11.42;91.87;102224.06;4996711;28;20034;-56
2022/01/01 06:20:59;;;;;;;25.80;10.90;;;;;;;11.37;91.45;102213.81;4995063;28;20033;-56
2022/01/01 06:23:24;;;;;;;23.08;10.15;;;;;;;11.27;91.89;102220.19;4996774;28;20038;-56
2022/01/01 06:25:49;;;;;;;27.17;10.52;;;;;;;11.23;92.14;102230.97;4996579;28;20030;-56
2022/01/01 06:28:15;;;;;;;22.98;10.68;;;;;;;11.24;92.33;102231.84;4996489;28;20026;-56
2022/01/01 06:30:40;;;;;;;23.02;10.85;;;;;;;11.24;92.27;102226.28;4996280;28;20181;-56
2022/01/01 06:33:13;;;;;;;24.70;10.30;;;;;;;11.23;92.26;102232.94;4996718;28;20481;-57
2022/01/01 06:35:43;;;;;;;23.10;10.50;;;;;;;11.23;92.26;102227.41;4996385;28;20030;-57
2022/01/01 06:38:10;;;;;;;23.30;10.52;;;;;;;11.19;91.89;102242.91;4996812;28;20034;-57
2022/01/01 06:40:41;;;;;;;21.85;9.82;;;;;;;11.18;91.97;102242.06;4995256;28;20542;-57
2022/01/01 06:43:09;;;;;;;23.10;10.45;;;;;;;11.10;92.07;102242.59;4996182;28;20027;-57
2022/01/01 06:45:34;;;;;;;22.95;10.18;;;;;;;11.10;91.71;102253.69;4996050;28;20109;-57
2022/01/01 06:48:00;;;;;;;24.30;10.82;;;;;;;11.02;92.37;102240.38;4995764;28;20503;-58
2022/01/01 06:50:25;;;;;;;24.88;10.70;;;;;;;10.96;92.16;102245.06;4995399;28;20030;-57
2022/01/01 06:52:51;;;;;;;24.25;10.23;;;;;;;10.93;92.60;102245.63;4995065;28;20126;-59
2022/01/01 06:55:17;;;;;;;23.83;9.75;;;;;;;10.90;92.46;102249.78;4995952;28;20042;-58
2022/01/01 06:57:43;;;;;;;24.58;10.05;;;;;;;10.91;92.77;102247.84;4995885;28;20474;-57
2022/01/01 07:00:09;;;;;;;22.33;9.35;;;;;;;10.90;92.25;102249.78;4995730;28;20034;-56
2022/01/01 07:02:42;;;;;;;23.05;9.80;;;;;;;10.91;92.46;102243.13;4983229;28;20030;-57
2022/01/01 07:05:08;;;;;;;23.63;9.93;;;;;;;10.89;92.47;102248.13;4974211;28;20027;-57
2022/01/01 07:07:33;;;;;;;21.02;9.55;;;;;;;10.91;92.29;102253.38;4974025;28;20053;-57
2022/01/01 07:09:59;;;;;;;22.35;9.73;;;;;;;10.91;92.06;102250.63;4974022;28;20030;-56
2022/01/01 07:12:24;;;;;;;22.95;9.45;;;;;;;10.91;92.00;102256.16;4974012;28;20038;-55
2022/01/01 07:14:49;;;;;;;24.73;10.27;;;;;;;10.89;92.13;102264.75;4973376;28;20031;-56
2022/01/01 07:17:14;;;;;;;22.48;9.52;;;;;;;10.91;92.35;102272.75;4973340;28;20541;-57
2022/01/01 07:19:40;;;;;;;24.00;9.55;;;;;;;10.92;91.96;102278.00;4973890;28;20043;-56
2022/01/01 07:22:05;;;;;;;20.85;8.95;;;;;;;10.98;91.76;102272.50;4973711;28;20450;-56
2022/01/01 07:24:30;;;;;;;22.23;8.85;;;;;;;11.00;91.90;102268.34;4973736;28;20027;-56
2022/01/01 07:26:56;;;;;;;20.60;8.40;;;;;;;11.01;91.76;102272.78;4973728;28;20407;-55
2022/01/01 07:29:21;;;;;;;23.70;9.10;;;;;;;11.03;91.34;102278.03;4973181;28;20137;-55
2022/01/01 07:31:46;;;;;;;20.85;9.15;;;;;;;11.01;91.81;102270.03;4973416;28;20042;-56
2022/01/01 07:34:12;;;;;;;22.70;9.85;;;;;;;11.01;91.40;102275.56;4972668;28;20030;-55
2022/01/01 07:36:37;;;;;;;22.35;9.80;;;;;;;11.03;91.36;102276.13;4973610;28;20039;-55
2022/01/01 07:39:03;;;;;;;21.75;9.55;;;;;;;11.05;91.48;102282.19;4972998;28;20089;-55
2022/01/01 07:41:28;;;;;;;21.38;9.50;;;;;;;11.06;91.17;102281.09;4973319;28;20066;-56
2022/01/01 07:43:53;;;;;;;23.60;9.73;;;;;;;11.06;91.01;102270.00;4973300;28;20109;-56
2022/01/01 07:46:18;;;;;;;22.00;9.45;;;;;;;11.10;90.80;102275.00;4973235;28;20054;-56
2022/01/01 07:48:44;;;;;;;21.70;9.80;;;;;;;11.11;90.83;102273.91;4973169;28;20375;-55
2022/01/01 07:51:09;;;;;;;22.85;9.70;;;;;;;11.11;90.90;102279.44;4972946;28;20035;-56
2022/01/01 07:53:34;;;;;;;23.15;9.20;;;;;;;11.13;90.65;102285.56;4970425;28;20506;-56
2022/01/01 07:56:00;;;;;;;21.13;9.63;;;;;;;11.14;90.46;102285.28;4973369;28;20101;-56
2022/01/01 07:58:25;;;;;;;22.13;9.35;;;;;;;11.18;90.27;102293.84;4972852;28;20038;-56
2022/01/01 08:00:50;;;;;;;22.40;9.82;;;;;;;11.18;89.82;102293.84;4972631;28;20305;-57
2022/01/01 08:03:16;;;;;;;22.92;9.43;;;;;;;11.20;89.97;102298.00;4972773;28;20588;-56
2022/01/01 08:05:41;;;;;;;23.38;9.60;;;;;;;11.24;89.73;102301.91;4972980;28;20027;-54
2022/01/01 08:08:06;;;;;;;21.98;9.20;;;;;;;11.24;89.77;102301.09;4972805;28;20121;-58
2022/01/01 08:10:32;;;;;;;23.85;8.82;;;;;;;11.25;89.74;102302.72;4972689;28;20030;-57
2022/01/01 08:12:57;;;;;;;20.52;8.60;;;;;;;11.28;89.35;102301.38;4971971;28;20485;-56
2022/01/01 08:15:23;;;;;;;25.17;8.85;;;;;;;11.28;88.72;102296.63;4972832;28;20030;-56
2022/01/01 08:17:48;;;;;;;20.85;8.35;;;;;;;11.24;88.98;102299.13;4972962;28;20093;-56
2022/01/01 08:20:13;;;;;;;20.63;8.73;;;;;;;11.24;88.99;102306.63;4972611;28;20035;-54
2022/01/01 08:22:39;;;;;;;22.73;8.13;;;;;;;11.25;89.32;102297.19;4972553;28;20136;-55
2022/01/01 08:25:05;;;;;;;20.98;8.65;;;;;;;11.30;88.79;102293.59;4972816;28;20109;-56
2022/01/01 08:27:30;;;;;;;23.10;9.02;;;;;;;11.26;89.27;102289.72;4971613;28;20485;-57
2022/01/01 08:29:56;;;;;;;20.85;8.90;;;;;;;11.27;89.18;102289.44;4972738;28;20049;-57
2022/01/01 08:32:21;;;;;;;21.95;8.60;;;;;;;11.29;89.13;102290.00;4972272;28;20396;-56
2022/01/01 08:34:46;;;;;;;24.95;8.93;;;;;;;11.28;89.26;102293.06;4972388;28;20023;-55
2022/01/01 08:37:11;;;;;;;22.80;8.65;;;;;;;11.32;88.99;102283.06;4970610;28;20549;-57
2022/01/01 08:39:37;;;;;;;21.50;8.32;;;;;;;11.33;88.65;102293.88;4972507;28;20078;-58
2022/01/01 08:42:03;;;;;;;22.88;9.38;;;;;;;11.34;88.79;102287.22;4972312;28;20041;-58
2022/01/01 08:44:28;;;;;;;22.17;9.35;;;;;;;11.36;88.82;102286.97;4972296;28;20118;-58
2022/01/01 08:46:53;;;;;;;22.60;8.90;;;;;;;11.35;89.01;102288.88;4971945;28;20027;-57
2022/01/01 08:49:19;;;;;;;24.70;9.45;;;;;;;11.35;88.90;102288.06;4972160;28;20035;-57
2022/01/01 08:51:44;;;;;;;21.48;9.02;;;;;;;11.37;88.78;102292.22;4972028;28;20151;-56
2022/01/01 08:54:11;;;;;;;22.15;9.27;;;;;;;11.36;88.85;102298.03;4970172;28;20030;-56
2022/01/01 08:56:37;;;;;;;21.83;8.73;;;;;;;11.40;88.32;102293.59;4972068;28;20027;-57
2022/01/01 08:59:02;;;;;;;23.83;9.40;;;;;;;11.38;88.68;102291.09;4971660;28;20035;-57
2022/01/01 09:01:27;;;;;;;23.92;9.48;;;;;;;11.39;88.62;102300.25;4972010;28;20055;-57
2022/01/01 09:03:53;;;;;;;22.95;9.25;;;;;;;11.38;88.40;102290.28;4973085;28;20035;-56
2022/01/01 09:06:18;;;;;;;23.92;9.43;;;;;;;11.35;88.61;102283.34;4978625;28;20034;-56
2022/01/01 09:08:44;;;;;;;22.25;9.00;;;;;;;11.37;88.30;102283.09;4977328;28;20045;-57
2022/01/01 09:11:11;;;;;;;24.92;9.13;;;;;;;11.32;88.34;102283.06;4978926;28;20031;-56
2022/01/01 09:13:41;;;;;;;22.58;9.38;;;;;;;11.34;88.49;102287.22;4978452;28;20089;-56
2022/01/01 09:16:08;;;;;;;20.30;9.23;;;;;;;11.37;88.32;102283.09;4978685;28;20034;-58
2022/01/01 09:18:33;;;;;;;21.83;9.25;;;;;;;11.38;88.28;102282.78;4978748;28;20022;-56
2022/01/01 09:20:59;;;;;;;22.73;9.95;;;;;;;11.33;88.71;102280.03;4978287;28;20113;-58
2022/01/01 09:23:24;;;;;;;21.80;8.85;;;;;;;11.37;88.29;102283.09;4977789;28;20038;-57
2022/01/01 09:25:49;;;;;;;23.58;9.48;;;;;;;11.39;88.66;102289.16;4988189;28;20477;-55
2022/01/01 09:28:15;;;;;;;20.50;8.57;;;;;;;11.38;88.63;102277.25;4997200;28;20500;-55
2022/01/01 09:30:40;;;;;;;21.80;8.65;;;;;;;11.46;88.00;102284.19;4997165;28;20058;-57
2022/01/01 09:33:05;;;;;;;22.20;8.73;;;;;;;11.47;87.86;102280.31;4997450;28;20034;-56
2022/01/01 09:35:30;;;;;;;20.33;8.70;;;;;;;11.45;87.65;102273.38;4997581;28;20058;-56
2022/01/01 09:37:56;;;;;;;22.98;9.80;;;;;;;11.42;88.30;102269.22;4997691;28;20030;-56
2022/01/01 09:40:21;;;;;;;21.42;9.07;;;;;;;11.45;88.21;102271.44;4997283;28;20386;-55
2022/01/01 09:42:47;;;;;;;22.17;9.20;;;;;;;11.42;88.18;102269.22;4996994;28;20038;-56
2022/01/01 09:45:13;;;;;;;22.70;9.35;;;;;;;11.42;87.91;102274.75;4996787;28;20040;-56
2022/01/01 09:47:38;;;;;;;19.05;9.00;;;;;;;11.44;88.28;102285.56;4997496;28;20113;-56
2022/01/01 09:50:06;;;;;;;22.25;9.35;;;;;;;11.44;88.29;102282.78;4996358;28;20027;-56
2022/01/01 09:52:32;;;;;;;20.20;9.00;;;;;;;11.45;88.41;102274.22;4996157;28;20086;-56
2022/01/01 09:54:58;;;;;;;20.42;9.07;;;;;;;11.46;88.48;102270.34;4997683;28;20470;-56
2022/01/01 09:57:23;;;;;;;24.08;9.20;;;;;;;11.47;88.14;102272.00;4997164;28;20070;-56
2022/01/01 09:59:48;;;;;;;22.85;9.23;;;;;;;11.43;88.43;102270.88;4997131;28;20034;-57
2022/01/01 10:02:14;;;;;;;22.00;9.40;;;;;;;11.44;88.46;102271.69;4996581;28;20030;-56
2022/01/01 10:04:51;;;;;;;19.95;9.15;;;;;;;11.43;88.43;102279.19;4996660;28;20477;-54
2022/01/01 10:07:17;;;;;;;19.02;9.15;;;;;;;11.42;88.33;102274.75;4996990;28;20041;-56
2022/01/01 10:09:42;;;;;;;22.38;10.10;;;;;;;11.44;88.68;102269.78;4997286;28;20452;-56
2022/01/01 10:12:10;;;;;;;21.75;9.60;;;;;;;11.42;88.22;102258.13;4997465;28;20073;-56
2022/01/01 10:14:42;;;;;;;21.42;9.88;;;;;;;11.49;88.52;102264.22;4997708;28;20030;-57
2022/01/01 10:17:18;;;;;;;23.05;9.32;;;;;;;11.53;88.51;102248.72;4993770;28;20042;-57
2022/01/01 10:19:45;;;;;;;20.38;9.52;;;;;;;11.57;88.18;102237.09;4994369;28;20053;-57
2022/01/01 10:22:13;;;;;;;20.00;9.10;;;;;;;11.58;87.97;102230.41;4994730;28;20069;-56
2022/01/01 10:27:45;;;;;;;21.27;9.85;;;;;;;11.65;87.98;102223.47;4994721;28;20045;-57
2022/01/01 10:30:23;;;;;;;21.67;9.52;;;;;;;11.67;87.92;102231.50;4994353;28;20035;-57
2022/01/01 10:33:08;;;;;;;20.40;9.50;;;;;;;11.69;88.09;102223.72;4994062;28;20053;-56
2022/01/01 10:35:42;;;;;;;20.58;9.00;;;;;;;11.69;87.93;102227.34;4994029;28;20034;-57
2022/01/01 10:38:13;;;;;;;20.73;9.93;;;;;;;11.74;87.95;102211.81;4994255;28;20034;-57
2022/01/01 10:40:39;;;;;;;20.58;9.55;;;;;;;11.73;87.38;102212.91;4993986;28;20018;-56
2022/01/01 10:43:04;;;;;;;20.08;9.40;;;;;;;11.76;87.42;102215.13;4993913;28;20448;-57
2022/01/01 10:45:31;;;;;;;20.98;9.85;;;;;;;11.75;87.02;102211.56;4993988;28;20114;-58
2022/01/01 10:50:48;;;;;;;22.38;9.20;;;;;;;11.91;86.56;102217.03;4994057;28;20054;-56
2022/01/01 10:53:22;;;;;;;21.55;9.75;;;;;;;11.94;86.57;102203.44;4991874;28;20129;-55
2022/01/01 10:55:54;;;;;;;22.23;9.52;;;;;;;11.98;86.41;102200.97;4993840;28;20069;-57
2022/01/01 10:58:22;;;;;;;21.20;9.55;;;;;;;11.99;86.19;102183.22;4993916;28;20363;-57
2022/01/01 11:00:48;;;;;;;19.98;9.35;;;;;;;12.05;86.18;102200.66;4993658;28;20030;-57
2022/01/01 11:03:16;;;;;;;21.00;9.43;;;;;;;12.07;85.98;102201.22;4993506;28;20069;-57
2022/01/01 11:05:43;;;;;;;22.30;9.40;;;;;;;12.10;86.11;102204.25;4993129;28;20040;-56
2022/01/01 11:08:09;;;;;;;19.92;9.63;;;;;;;12.12;86.05;102190.94;4993541;28;20034;-57
2022/01/01 11:10:36;;;;;;;20.60;8.65;;;;;;;12.11;85.65;102188.44;4992829;28;20042;-56
2022/01/01 11:13:03;;;;;;;19.77;9.93;;;;;;;12.13;85.81;102187.06;4993127;28;20022;-56
2022/01/01 11:15:30;;;;;;;19.75;8.85;;;;;;;12.17;86.06;102190.91;4993436;28;20034;-56
2022/01/01 11:17:56;;;;;;;20.25;9.10;;;;;;;12.22;85.51;102198.38;4993303;28;20113;-57